sensor_id;sensor_type;location;lat;lon;timestamp;P1;durP1;ratioP1;P2;durP2;ratioP2
3487;SDS011;38546;48.170;11.724;2022-09-27T00:00:13;1.80;;;1.70;;
3487;SDS011;38546;48.170;11.724;2022-09-27T00:03:03;1.80;;;1.70;;
3487;SDS011;38546;48.170;11.724;2022-09-27T00:06:06;2.00;;;1.90;;
3487;SDS011;38546;48.170;11.724;2022-09-27T00:09:08;3.80;;;1.63;;
3487;SDS011;38546;48.170;11.724;2022-09-27T00:11:58;2.23;;;1.63;;
3487;SDS011;38546;48.170;11.724;2022-09-27T00:14:47;2.43;;;2.33;;
3487;SDS011;38546;48.170;11.724;2022-09-27T00:17:37;2.50;;;2.00;;
3487;SDS011;38546;48.170;11.724;2022-09-27T00:20:28;2.27;;;2.07;;
3487;SDS011;38546;48.170;11.724;2022-09-27T00:23:17;3.30;;;2.03;;
3487;SDS011;38546;48.170;11.724;2022-09-27T00:26:07;1.90;;;1.80;;
3487;SDS011;38546;48.170;11.724;2022-09-27T00:29:00;1.80;;;1.70;;
3487;SDS011;38546;48.170;11.724;2022-09-27T00:31:49;1.90;;;1.80;;
3487;SDS011;38546;48.170;11.724;2022-09-27T00:34:39;1.90;;;1.80;;
3487;SDS011;38546;48.170;11.724;2022-09-27T00:37:29;2.40;;;2.20;;
3487;SDS011;38546;48.170;11.724;2022-09-27T00:40:18;5.27;;;2.23;;
3487;SDS011;38546;48.170;11.724;2022-09-27T00:43:16;2.30;;;2.13;;
3487;SDS011;38546;48.170;11.724;2022-09-27T00:46:09;2.20;;;2.00;;
3487;SDS011;38546;48.170;11.724;2022-09-27T00:49:05;3.07;;;2.20;;
3487;SDS011;38546;48.170;11.724;2022-09-27T00:52:20;3.67;;;2.20;;
3487;SDS011;38546;48.170;11.724;2022-09-27T01:02:06;2.07;;;1.87;;
3487;SDS011;38546;48.170;11.724;2022-09-27T01:04:56;2.90;;;2.70;;
3487;SDS011;38546;48.170;11.724;2022-09-27T01:07:46;2.67;;;2.47;;
3487;SDS011;38546;48.170;11.724;2022-09-27T01:10:35;2.20;;;2.10;;
3487;SDS011;38546;48.170;11.724;2022-09-27T01:18:59;2.83;;;2.07;;
3487;SDS011;38546;48.170;11.724;2022-09-27T01:31:50;2.90;;;2.53;;
3487;SDS011;38546;48.170;11.724;2022-09-27T01:35:14;2.30;;;2.20;;
3487;SDS011;38546;48.170;11.724;2022-09-27T01:38:22;2.43;;;2.23;;
3487;SDS011;38546;48.170;11.724;2022-09-27T01:41:45;2.13;;;1.93;;
3487;SDS011;38546;48.170;11.724;2022-09-27T01:46:20;2.30;;;1.93;;
3487;SDS011;38546;48.170;11.724;2022-09-27T01:49:21;2.30;;;2.20;;
3487;SDS011;38546;48.170;11.724;2022-09-27T01:52:19;2.43;;;2.33;;
3487;SDS011;38546;48.170;11.724;2022-09-27T01:55:16;2.33;;;2.20;;
3487;SDS011;38546;48.170;11.724;2022-09-27T01:58:15;2.93;;;2.57;;
3487;SDS011;38546;48.170;11.724;2022-09-27T02:01:14;2.53;;;2.43;;
3487;SDS011;38546;48.170;11.724;2022-09-27T02:04:07;3.13;;;2.93;;
3487;SDS011;38546;48.170;11.724;2022-09-27T02:07:07;3.00;;;2.80;;
3487;SDS011;38546;48.170;11.724;2022-09-27T02:10:17;4.83;;;3.33;;
3487;SDS011;38546;48.170;11.724;2022-09-27T02:13:16;5.10;;;3.53;;
3487;SDS011;38546;48.170;11.724;2022-09-27T02:19:39;7.20;;;3.60;;
3487;SDS011;38546;48.170;11.724;2022-09-27T02:22:54;3.17;;;2.90;;
3487;SDS011;38546;48.170;11.724;2022-09-27T02:26:32;3.90;;;3.00;;
3487;SDS011;38546;48.170;11.724;2022-09-27T02:29:33;3.50;;;3.13;;
3487;SDS011;38546;48.170;11.724;2022-09-27T02:32:33;4.20;;;3.50;;
3487;SDS011;38546;48.170;11.724;2022-09-27T02:35:32;3.90;;;3.50;;
3487;SDS011;38546;48.170;11.724;2022-09-27T02:38:23;4.83;;;3.83;;
3487;SDS011;38546;48.170;11.724;2022-09-27T02:41:13;3.60;;;3.30;;
3487;SDS011;38546;48.170;11.724;2022-09-27T02:44:09;3.30;;;3.10;;
3487;SDS011;38546;48.170;11.724;2022-09-27T02:47:05;5.33;;;4.13;;
3487;SDS011;38546;48.170;11.724;2022-09-27T02:50:56;4.50;;;4.07;;
3487;SDS011;38546;48.170;11.724;2022-09-27T02:54:19;6.40;;;4.30;;
3487;SDS011;38546;48.170;11.724;2022-09-27T03:02:31;4.00;;;3.60;;
3487;SDS011;38546;48.170;11.724;2022-09-27T03:06:59;3.60;;;3.30;;
3487;SDS011;38546;48.170;11.724;2022-09-27T03:09:50;4.17;;;3.77;;
3487;SDS011;38546;48.170;11.724;2022-09-27T03:12:41;5.10;;;4.20;;
3487;SDS011;38546;48.170;11.724;2022-09-27T03:15:30;4.53;;;3.47;;
3487;SDS011;38546;48.170;11.724;2022-09-27T03:18:20;3.93;;;3.57;;
3487;SDS011;38546;48.170;11.724;2022-09-27T03:21:09;4.50;;;4.07;;
3487;SDS011;38546;48.170;11.724;2022-09-27T03:23:58;4.03;;;3.73;;
3487;SDS011;38546;48.170;11.724;2022-09-27T03:26:49;4.60;;;3.87;;
3487;SDS011;38546;48.170;11.724;2022-09-27T03:29:38;5.40;;;4.50;;
3487;SDS011;38546;48.170;11.724;2022-09-27T03:32:27;4.13;;;3.73;;
3487;SDS011;38546;48.170;11.724;2022-09-27T03:35:16;5.70;;;4.80;;
3487;SDS011;38546;48.170;11.724;2022-09-27T03:38:06;4.60;;;4.00;;
3487;SDS011;38546;48.170;11.724;2022-09-27T03:40:55;5.13;;;4.13;;
3487;SDS011;38546;48.170;11.724;2022-09-27T03:43:44;5.20;;;4.60;;
3487;SDS011;38546;48.170;11.724;2022-09-27T03:46:33;5.43;;;4.20;;
3487;SDS011;38546;48.170;11.724;2022-09-27T03:49:23;4.77;;;3.90;;
3487;SDS011;38546;48.170;11.724;2022-09-27T03:52:12;6.67;;;4.77;;
3487;SDS011;38546;48.170;11.724;2022-09-27T03:55:03;5.27;;;4.60;;
3487;SDS011;38546;48.170;11.724;2022-09-27T03:57:54;5.93;;;4.50;;
3487;SDS011;38546;48.170;11.724;2022-09-27T04:00:44;4.40;;;4.00;;
3487;SDS011;38546;48.170;11.724;2022-09-27T04:03:34;4.73;;;4.33;;
3487;SDS011;38546;48.170;11.724;2022-09-27T04:06:24;5.10;;;4.60;;
3487;SDS011;38546;48.170;11.724;2022-09-27T04:09:14;5.40;;;4.00;;
3487;SDS011;38546;48.170;11.724;2022-09-27T04:12:04;4.00;;;3.60;;
3487;SDS011;38546;48.170;11.724;2022-09-27T04:14:54;4.57;;;4.17;;
3487;SDS011;38546;48.170;11.724;2022-09-27T04:17:43;4.77;;;4.30;;
3487;SDS011;38546;48.170;11.724;2022-09-27T04:20:34;4.50;;;4.10;;
3487;SDS011;38546;48.170;11.724;2022-09-27T04:23:24;5.67;;;3.80;;
3487;SDS011;38546;48.170;11.724;2022-09-27T04:26:14;5.77;;;3.77;;
3487;SDS011;38546;48.170;11.724;2022-09-27T04:29:03;4.30;;;3.90;;
3487;SDS011;38546;48.170;11.724;2022-09-27T04:31:53;3.40;;;3.10;;
3487;SDS011;38546;48.170;11.724;2022-09-27T04:34:43;3.80;;;3.50;;
3487;SDS011;38546;48.170;11.724;2022-09-27T04:37:51;4.70;;;4.00;;
3487;SDS011;38546;48.170;11.724;2022-09-27T04:40:41;6.47;;;4.50;;
3487;SDS011;38546;48.170;11.724;2022-09-27T04:43:33;4.40;;;3.70;;
3487;SDS011;38546;48.170;11.724;2022-09-27T04:46:22;5.03;;;4.00;;
3487;SDS011;38546;48.170;11.724;2022-09-27T04:49:12;5.27;;;3.93;;
3487;SDS011;38546;48.170;11.724;2022-09-27T04:52:02;5.70;;;4.93;;
3487;SDS011;38546;48.170;11.724;2022-09-27T04:54:52;4.90;;;3.47;;
3487;SDS011;38546;48.170;11.724;2022-09-27T04:57:41;4.90;;;3.97;;
3487;SDS011;38546;48.170;11.724;2022-09-27T05:00:30;4.53;;;4.13;;
3487;SDS011;38546;48.170;11.724;2022-09-27T05:03:23;6.17;;;4.20;;
3487;SDS011;38546;48.170;11.724;2022-09-27T05:06:14;5.40;;;4.60;;
3487;SDS011;38546;48.170;11.724;2022-09-27T05:09:03;5.27;;;4.77;;
3487;SDS011;38546;48.170;11.724;2022-09-27T05:11:52;4.67;;;4.03;;
3487;SDS011;38546;48.170;11.724;2022-09-27T05:14:41;5.83;;;4.80;;
3487;SDS011;38546;48.170;11.724;2022-09-27T05:17:30;5.97;;;4.67;;
3487;SDS011;38546;48.170;11.724;2022-09-27T05:20:20;7.00;;;4.90;;
3487;SDS011;38546;48.170;11.724;2022-09-27T05:23:10;5.97;;;4.13;;
3487;SDS011;38546;48.170;11.724;2022-09-27T05:26:04;4.23;;;3.83;;
3487;SDS011;38546;48.170;11.724;2022-09-27T05:28:54;4.07;;;3.70;;
3487;SDS011;38546;48.170;11.724;2022-09-27T05:31:43;3.87;;;3.57;;
3487;SDS011;38546;48.170;11.724;2022-09-27T05:34:32;5.30;;;3.40;;
3487;SDS011;38546;48.170;11.724;2022-09-27T05:37:21;4.27;;;3.40;;
3487;SDS011;38546;48.170;11.724;2022-09-27T05:40:11;3.97;;;3.57;;
3487;SDS011;38546;48.170;11.724;2022-09-27T05:43:00;4.47;;;3.70;;
3487;SDS011;38546;48.170;11.724;2022-09-27T05:45:49;3.03;;;2.83;;
3487;SDS011;38546;48.170;11.724;2022-09-27T05:48:40;2.93;;;2.50;;
3487;SDS011;38546;48.170;11.724;2022-09-27T05:51:29;2.60;;;2.40;;
3487;SDS011;38546;48.170;11.724;2022-09-27T05:54:18;3.93;;;3.57;;
3487;SDS011;38546;48.170;11.724;2022-09-27T05:57:07;1.67;;;1.57;;
3487;SDS011;38546;48.170;11.724;2022-09-27T05:59:57;2.90;;;1.40;;
3487;SDS011;38546;48.170;11.724;2022-09-27T06:02:52;3.07;;;1.57;;
3487;SDS011;38546;48.170;11.724;2022-09-27T06:05:46;1.80;;;1.60;;
3487;SDS011;38546;48.170;11.724;2022-09-27T06:08:36;1.80;;;1.40;;
3487;SDS011;38546;48.170;11.724;2022-09-27T06:11:27;2.07;;;1.97;;
3487;SDS011;38546;48.170;11.724;2022-09-27T06:14:16;1.37;;;1.10;;
3487;SDS011;38546;48.170;11.724;2022-09-27T06:17:05;1.40;;;1.30;;
3487;SDS011;38546;48.170;11.724;2022-09-27T06:19:54;1.90;;;1.43;;
3487;SDS011;38546;48.170;11.724;2022-09-27T06:22:43;1.50;;;1.40;;
3487;SDS011;38546;48.170;11.724;2022-09-27T06:25:37;1.80;;;1.10;;
3487;SDS011;38546;48.170;11.724;2022-09-27T06:28:26;1.30;;;1.20;;
3487;SDS011;38546;48.170;11.724;2022-09-27T06:31:16;1.57;;;1.47;;
3487;SDS011;38546;48.170;11.724;2022-09-27T06:34:06;1.27;;;1.23;;
3487;SDS011;38546;48.170;11.724;2022-09-27T06:36:56;1.23;;;1.23;;
3487;SDS011;38546;48.170;11.724;2022-09-27T06:39:45;1.63;;;1.53;;
3487;SDS011;38546;48.170;11.724;2022-09-27T06:42:36;1.57;;;1.47;;
3487;SDS011;38546;48.170;11.724;2022-09-27T06:45:26;4.30;;;1.63;;
3487;SDS011;38546;48.170;11.724;2022-09-27T06:48:15;2.50;;;1.63;;
3487;SDS011;38546;48.170;11.724;2022-09-27T06:51:05;2.23;;;2.03;;
3487;SDS011;38546;48.170;11.724;2022-09-27T06:53:54;1.30;;;1.30;;
3487;SDS011;38546;48.170;11.724;2022-09-27T06:56:43;1.57;;;1.57;;
3487;SDS011;38546;48.170;11.724;2022-09-27T06:59:35;2.67;;;1.73;;
3487;SDS011;38546;48.170;11.724;2022-09-27T07:02:42;1.83;;;1.37;;
3487;SDS011;38546;48.170;11.724;2022-09-27T07:05:33;2.10;;;1.27;;
3487;SDS011;38546;48.170;11.724;2022-09-27T07:08:22;3.23;;;1.37;;
3487;SDS011;38546;48.170;11.724;2022-09-27T07:11:16;1.47;;;1.30;;
3487;SDS011;38546;48.170;11.724;2022-09-27T07:14:05;1.60;;;1.23;;
3487;SDS011;38546;48.170;11.724;2022-09-27T07:16:55;2.50;;;1.87;;
3487;SDS011;38546;48.170;11.724;2022-09-27T07:19:45;1.70;;;1.60;;
3487;SDS011;38546;48.170;11.724;2022-09-27T07:22:38;1.90;;;1.30;;
3487;SDS011;38546;48.170;11.724;2022-09-27T07:25:29;2.43;;;1.23;;
3487;SDS011;38546;48.170;11.724;2022-09-27T07:28:19;2.23;;;1.80;;
3487;SDS011;38546;48.170;11.724;2022-09-27T07:31:09;1.60;;;1.50;;
3487;SDS011;38546;48.170;11.724;2022-09-27T07:33:57;1.57;;;1.47;;
3487;SDS011;38546;48.170;11.724;2022-09-27T07:36:46;6.60;;;1.70;;
3487;SDS011;38546;48.170;11.724;2022-09-27T07:39:35;1.73;;;1.63;;
3487;SDS011;38546;48.170;11.724;2022-09-27T07:42:24;2.83;;;1.80;;
3487;SDS011;38546;48.170;11.724;2022-09-27T07:45:14;2.20;;;1.63;;
3487;SDS011;38546;48.170;11.724;2022-09-27T07:48:10;2.00;;;1.80;;
3487;SDS011;38546;48.170;11.724;2022-09-27T07:51:01;5.43;;;1.90;;
3487;SDS011;38546;48.170;11.724;2022-09-27T07:53:51;1.30;;;1.23;;
3487;SDS011;38546;48.170;11.724;2022-09-27T07:56:40;3.03;;;1.63;;
3487;SDS011;38546;48.170;11.724;2022-09-27T07:59:29;1.63;;;1.53;;
3487;SDS011;38546;48.170;11.724;2022-09-27T08:02:18;1.37;;;1.30;;
3487;SDS011;38546;48.170;11.724;2022-09-27T08:05:07;2.27;;;1.10;;
3487;SDS011;38546;48.170;11.724;2022-09-27T08:07:59;1.10;;;1.00;;
3487;SDS011;38546;48.170;11.724;2022-09-27T08:10:48;3.70;;;0.93;;
3487;SDS011;38546;48.170;11.724;2022-09-27T08:13:38;1.37;;;1.10;;
3487;SDS011;38546;48.170;11.724;2022-09-27T08:16:27;1.17;;;1.10;;
3487;SDS011;38546;48.170;11.724;2022-09-27T08:19:18;1.50;;;1.20;;
3487;SDS011;38546;48.170;11.724;2022-09-27T08:22:07;0.83;;;0.80;;
3487;SDS011;38546;48.170;11.724;2022-09-27T08:24:57;4.00;;;0.90;;
3487;SDS011;38546;48.170;11.724;2022-09-27T08:27:53;1.80;;;1.43;;
3487;SDS011;38546;48.170;11.724;2022-09-27T08:30:48;1.30;;;1.20;;
3487;SDS011;38546;48.170;11.724;2022-09-27T08:33:38;0.77;;;0.77;;
3487;SDS011;38546;48.170;11.724;2022-09-27T08:36:27;1.13;;;0.73;;
3487;SDS011;38546;48.170;11.724;2022-09-27T08:39:18;4.10;;;0.80;;
3487;SDS011;38546;48.170;11.724;2022-09-27T08:51:54;1.53;;;1.07;;
3487;SDS011;38546;48.170;11.724;2022-09-27T08:54:46;1.13;;;1.03;;
3487;SDS011;38546;48.170;11.724;2022-09-27T08:57:37;1.73;;;1.20;;
3487;SDS011;38546;48.170;11.724;2022-09-27T09:00:27;1.70;;;1.00;;
3487;SDS011;38546;48.170;11.724;2022-09-27T09:03:17;1.33;;;1.33;;
3487;SDS011;38546;48.170;11.724;2022-09-27T09:11:01;1.93;;;1.10;;
3487;SDS011;38546;48.170;11.724;2022-09-27T09:15:53;1.90;;;1.00;;
3487;SDS011;38546;48.170;11.724;2022-09-27T09:34:25;3.90;;;1.00;;
3487;SDS011;38546;48.170;11.724;2022-09-27T09:37:23;2.70;;;1.00;;
3487;SDS011;38546;48.170;11.724;2022-09-27T09:40:57;2.10;;;1.20;;
3487;SDS011;38546;48.170;11.724;2022-09-27T09:44:01;1.00;;;0.90;;
3487;SDS011;38546;48.170;11.724;2022-09-27T09:47:12;1.00;;;1.00;;
3487;SDS011;38546;48.170;11.724;2022-09-27T09:54:53;1.13;;;0.90;;
3487;SDS011;38546;48.170;11.724;2022-09-27T10:01:33;0.83;;;0.83;;
3487;SDS011;38546;48.170;11.724;2022-09-27T10:04:30;0.87;;;0.80;;
3487;SDS011;38546;48.170;11.724;2022-09-27T10:07:22;1.90;;;0.70;;
3487;SDS011;38546;48.170;11.724;2022-09-27T10:10:13;0.77;;;0.77;;
3487;SDS011;38546;48.170;11.724;2022-09-27T10:13:07;0.67;;;0.67;;
3487;SDS011;38546;48.170;11.724;2022-09-27T10:16:18;0.87;;;0.60;;
3487;SDS011;38546;48.170;11.724;2022-09-27T10:19:09;0.60;;;0.60;;
3487;SDS011;38546;48.170;11.724;2022-09-27T10:22:01;0.70;;;0.70;;
3487;SDS011;38546;48.170;11.724;2022-09-27T10:25:06;0.90;;;0.90;;
3487;SDS011;38546;48.170;11.724;2022-09-27T10:27:57;1.17;;;1.03;;
3487;SDS011;38546;48.170;11.724;2022-09-27T10:30:53;0.90;;;0.70;;
3487;SDS011;38546;48.170;11.724;2022-09-27T10:34:01;1.00;;;1.00;;
3487;SDS011;38546;48.170;11.724;2022-09-27T10:40:28;1.20;;;1.20;;
3487;SDS011;38546;48.170;11.724;2022-09-27T10:43:34;1.43;;;1.43;;
3487;SDS011;38546;48.170;11.724;2022-09-27T10:46:29;1.60;;;1.50;;
3487;SDS011;38546;48.170;11.724;2022-09-27T10:49:29;0.70;;;0.70;;
3487;SDS011;38546;48.170;11.724;2022-09-27T10:52:23;2.03;;;1.30;;
3487;SDS011;38546;48.170;11.724;2022-09-27T10:55:21;1.50;;;1.33;;
3487;SDS011;38546;48.170;11.724;2022-09-27T10:58:23;0.90;;;0.90;;
3487;SDS011;38546;48.170;11.724;2022-09-27T11:01:21;3.10;;;1.60;;
3487;SDS011;38546;48.170;11.724;2022-09-27T11:04:18;1.67;;;1.60;;
3487;SDS011;38546;48.170;11.724;2022-09-27T11:07:15;1.07;;;1.07;;
3487;SDS011;38546;48.170;11.724;2022-09-27T11:10:27;1.03;;;1.03;;
3487;SDS011;38546;48.170;11.724;2022-09-27T11:13:19;1.07;;;1.07;;
3487;SDS011;38546;48.170;11.724;2022-09-27T11:22:37;1.20;;;1.10;;
3487;SDS011;38546;48.170;11.724;2022-09-27T11:29:50;1.73;;;1.40;;
3487;SDS011;38546;48.170;11.724;2022-09-27T11:41:24;3.30;;;1.50;;
3487;SDS011;38546;48.170;11.724;2022-09-27T11:45:45;1.93;;;1.83;;
3487;SDS011;38546;48.170;11.724;2022-09-27T11:48:48;1.50;;;1.40;;
3487;SDS011;38546;48.170;11.724;2022-09-27T11:52:17;1.97;;;1.13;;
3487;SDS011;38546;48.170;11.724;2022-09-27T12:09:07;1.33;;;1.23;;
3487;SDS011;38546;48.170;11.724;2022-09-27T12:15:02;1.10;;;1.00;;
3487;SDS011;38546;48.170;11.724;2022-09-27T12:18:12;1.03;;;1.03;;
3487;SDS011;38546;48.170;11.724;2022-09-27T12:21:17;1.80;;;1.50;;
3487;SDS011;38546;48.170;11.724;2022-09-27T12:24:08;1.70;;;1.37;;
3487;SDS011;38546;48.170;11.724;2022-09-27T12:27:19;10.13;;;1.23;;
3487;SDS011;38546;48.170;11.724;2022-09-27T12:30:30;1.60;;;1.50;;
3487;SDS011;38546;48.170;11.724;2022-09-27T12:33:34;1.23;;;1.10;;
3487;SDS011;38546;48.170;11.724;2022-09-27T12:36:35;1.50;;;1.50;;
3487;SDS011;38546;48.170;11.724;2022-09-27T12:40:34;1.80;;;1.40;;
3487;SDS011;38546;48.170;11.724;2022-09-27T12:43:27;1.47;;;1.47;;
3487;SDS011;38546;48.170;11.724;2022-09-27T12:47:06;3.37;;;1.70;;
3487;SDS011;38546;48.170;11.724;2022-09-27T12:50:52;1.90;;;1.80;;
3487;SDS011;38546;48.170;11.724;2022-09-27T12:54:41;2.70;;;1.40;;
3487;SDS011;38546;48.170;11.724;2022-09-27T12:58:23;1.20;;;1.20;;
3487;SDS011;38546;48.170;11.724;2022-09-27T13:03:14;2.77;;;1.70;;
3487;SDS011;38546;48.170;11.724;2022-09-27T13:12:49;1.77;;;1.67;;
3487;SDS011;38546;48.170;11.724;2022-09-27T13:15:42;2.30;;;2.10;;
3487;SDS011;38546;48.170;11.724;2022-09-27T13:18:56;1.70;;;1.60;;
3487;SDS011;38546;48.170;11.724;2022-09-27T13:21:54;2.90;;;1.83;;
3487;SDS011;38546;48.170;11.724;2022-09-27T13:24:45;2.50;;;2.30;;
3487;SDS011;38546;48.170;11.724;2022-09-27T13:27:36;5.17;;;3.90;;
3487;SDS011;38546;48.170;11.724;2022-09-27T13:37:55;3.87;;;3.13;;
3487;SDS011;38546;48.170;11.724;2022-09-27T13:40:48;7.33;;;3.63;;
3487;SDS011;38546;48.170;11.724;2022-09-27T13:43:44;1.67;;;1.57;;
3487;SDS011;38546;48.170;11.724;2022-09-27T13:47:35;1.37;;;1.20;;
3487;SDS011;38546;48.170;11.724;2022-09-27T13:50:33;0.97;;;0.97;;
3487;SDS011;38546;48.170;11.724;2022-09-27T13:53:57;1.00;;;1.00;;
3487;SDS011;38546;48.170;11.724;2022-09-27T13:56:53;1.03;;;1.00;;
3487;SDS011;38546;48.170;11.724;2022-09-27T13:59:50;2.07;;;1.13;;
3487;SDS011;38546;48.170;11.724;2022-09-27T14:02:49;1.07;;;1.07;;
3487;SDS011;38546;48.170;11.724;2022-09-27T14:05:56;0.80;;;0.80;;
3487;SDS011;38546;48.170;11.724;2022-09-27T14:08:56;2.47;;;1.50;;
3487;SDS011;38546;48.170;11.724;2022-09-27T14:11:52;2.53;;;1.43;;
3487;SDS011;38546;48.170;11.724;2022-09-27T14:14:47;1.53;;;1.03;;
3487;SDS011;38546;48.170;11.724;2022-09-27T14:17:41;1.50;;;1.40;;
3487;SDS011;38546;48.170;11.724;2022-09-27T14:24:46;2.00;;;1.23;;
3487;SDS011;38546;48.170;11.724;2022-09-27T14:27:37;1.17;;;1.17;;
3487;SDS011;38546;48.170;11.724;2022-09-27T14:30:28;2.23;;;1.30;;
3487;SDS011;38546;48.170;11.724;2022-09-27T14:33:28;1.30;;;1.20;;
3487;SDS011;38546;48.170;11.724;2022-09-27T14:36:29;3.43;;;1.27;;
3487;SDS011;38546;48.170;11.724;2022-09-27T14:39:40;1.17;;;1.10;;
3487;SDS011;38546;48.170;11.724;2022-09-27T14:42:31;1.17;;;1.07;;
3487;SDS011;38546;48.170;11.724;2022-09-27T14:45:36;0.80;;;0.80;;
3487;SDS011;38546;48.170;11.724;2022-09-27T14:48:31;0.63;;;0.60;;
3487;SDS011;38546;48.170;11.724;2022-09-27T14:51:28;1.93;;;0.93;;
3487;SDS011;38546;48.170;11.724;2022-09-27T14:54:20;0.70;;;0.70;;
3487;SDS011;38546;48.170;11.724;2022-09-27T14:57:14;1.00;;;1.00;;
3487;SDS011;38546;48.170;11.724;2022-09-27T15:00:24;0.80;;;0.80;;
3487;SDS011;38546;48.170;11.724;2022-09-27T15:03:23;1.10;;;0.93;;
3487;SDS011;38546;48.170;11.724;2022-09-27T15:06:18;0.77;;;0.77;;
3487;SDS011;38546;48.170;11.724;2022-09-27T15:09:11;1.10;;;1.00;;
3487;SDS011;38546;48.170;11.724;2022-09-27T15:12:04;1.60;;;1.50;;
3487;SDS011;38546;48.170;11.724;2022-09-27T15:14:54;1.10;;;1.10;;
3487;SDS011;38546;48.170;11.724;2022-09-27T15:17:45;4.30;;;0.97;;
3487;SDS011;38546;48.170;11.724;2022-09-27T15:20:35;2.93;;;1.13;;
3487;SDS011;38546;48.170;11.724;2022-09-27T15:23:28;1.07;;;1.07;;
3487;SDS011;38546;48.170;11.724;2022-09-27T15:26:33;1.00;;;0.90;;
3487;SDS011;38546;48.170;11.724;2022-09-27T15:29:32;3.33;;;1.20;;
3487;SDS011;38546;48.170;11.724;2022-09-27T15:32:22;1.10;;;1.00;;
3487;SDS011;38546;48.170;11.724;2022-09-27T15:35:16;2.43;;;1.30;;
3487;SDS011;38546;48.170;11.724;2022-09-27T15:38:22;4.33;;;1.70;;
3487;SDS011;38546;48.170;11.724;2022-09-27T15:41:18;1.40;;;1.30;;
3487;SDS011;38546;48.170;11.724;2022-09-27T15:44:25;1.30;;;1.20;;
3487;SDS011;38546;48.170;11.724;2022-09-27T15:47:38;1.00;;;1.00;;
3487;SDS011;38546;48.170;11.724;2022-09-27T15:50:31;4.73;;;1.60;;
3487;SDS011;38546;48.170;11.724;2022-09-27T15:58:04;1.97;;;1.87;;
3487;SDS011;38546;48.170;11.724;2022-09-27T16:01:02;1.27;;;1.20;;
3487;SDS011;38546;48.170;11.724;2022-09-27T16:03:59;1.60;;;1.50;;
3487;SDS011;38546;48.170;11.724;2022-09-27T16:06:49;1.40;;;1.40;;
3487;SDS011;38546;48.170;11.724;2022-09-27T16:09:38;2.40;;;1.67;;
3487;SDS011;38546;48.170;11.724;2022-09-27T16:12:28;1.40;;;1.30;;
3487;SDS011;38546;48.170;11.724;2022-09-27T16:15:18;2.57;;;1.50;;
3487;SDS011;38546;48.170;11.724;2022-09-27T16:18:08;7.03;;;1.63;;
3487;SDS011;38546;48.170;11.724;2022-09-27T16:20:58;1.87;;;1.77;;
3487;SDS011;38546;48.170;11.724;2022-09-27T16:23:47;1.50;;;1.40;;
3487;SDS011;38546;48.170;11.724;2022-09-27T16:26:36;2.00;;;1.90;;
3487;SDS011;38546;48.170;11.724;2022-09-27T16:29:26;2.30;;;2.10;;
3487;SDS011;38546;48.170;11.724;2022-09-27T16:32:15;2.50;;;1.80;;
3487;SDS011;38546;48.170;11.724;2022-09-27T16:35:04;2.17;;;1.97;;
3487;SDS011;38546;48.170;11.724;2022-09-27T16:37:54;1.70;;;1.63;;
3487;SDS011;38546;48.170;11.724;2022-09-27T16:40:43;2.47;;;2.27;;
3487;SDS011;38546;48.170;11.724;2022-09-27T16:43:32;1.97;;;1.83;;
3487;SDS011;38546;48.170;11.724;2022-09-27T16:46:21;2.00;;;1.90;;
3487;SDS011;38546;48.170;11.724;2022-09-27T16:49:11;3.07;;;2.67;;
3487;SDS011;38546;48.170;11.724;2022-09-27T16:52:19;4.43;;;2.20;;
3487;SDS011;38546;48.170;11.724;2022-09-27T16:55:08;4.53;;;2.03;;
3487;SDS011;38546;48.170;11.724;2022-09-27T16:57:57;5.07;;;3.10;;
3487;SDS011;38546;48.170;11.724;2022-09-27T17:00:47;1.93;;;1.83;;
3487;SDS011;38546;48.170;11.724;2022-09-27T17:03:36;6.17;;;2.43;;
3487;SDS011;38546;48.170;11.724;2022-09-27T17:06:26;2.33;;;2.13;;
3487;SDS011;38546;48.170;11.724;2022-09-27T17:09:20;2.40;;;2.30;;
3487;SDS011;38546;48.170;11.724;2022-09-27T17:12:10;5.23;;;3.43;;
3487;SDS011;38546;48.170;11.724;2022-09-27T17:15:00;2.23;;;2.13;;
3487;SDS011;38546;48.170;11.724;2022-09-27T17:17:49;3.60;;;2.50;;
3487;SDS011;38546;48.170;11.724;2022-09-27T17:20:38;1.90;;;1.80;;
3487;SDS011;38546;48.170;11.724;2022-09-27T17:23:31;3.00;;;2.63;;
3487;SDS011;38546;48.170;11.724;2022-09-27T17:26:21;5.10;;;2.07;;
3487;SDS011;38546;48.170;11.724;2022-09-27T17:29:14;2.23;;;2.13;;
3487;SDS011;38546;48.170;11.724;2022-09-27T17:32:03;1.93;;;1.83;;
3487;SDS011;38546;48.170;11.724;2022-09-27T17:34:56;5.87;;;3.10;;
3487;SDS011;38546;48.170;11.724;2022-09-27T17:37:45;3.50;;;2.43;;
3487;SDS011;38546;48.170;11.724;2022-09-27T17:40:35;2.80;;;2.23;;
3487;SDS011;38546;48.170;11.724;2022-09-27T17:43:24;3.03;;;2.50;;
3487;SDS011;38546;48.170;11.724;2022-09-27T17:46:13;2.73;;;2.27;;
3487;SDS011;38546;48.170;11.724;2022-09-27T17:49:02;2.47;;;2.20;;
3487;SDS011;38546;48.170;11.724;2022-09-27T17:52:11;2.33;;;2.20;;
3487;SDS011;38546;48.170;11.724;2022-09-27T17:55:00;3.03;;;2.73;;
3487;SDS011;38546;48.170;11.724;2022-09-27T17:57:49;3.37;;;2.10;;
3487;SDS011;38546;48.170;11.724;2022-09-27T18:00:39;4.13;;;2.33;;
3487;SDS011;38546;48.170;11.724;2022-09-27T18:03:29;2.80;;;2.60;;
3487;SDS011;38546;48.170;11.724;2022-09-27T18:06:20;5.13;;;2.30;;
3487;SDS011;38546;48.170;11.724;2022-09-27T18:09:11;2.70;;;2.40;;
3487;SDS011;38546;48.170;11.724;2022-09-27T18:12:03;4.47;;;2.90;;
3487;SDS011;38546;48.170;11.724;2022-09-27T18:14:53;2.33;;;2.23;;
3487;SDS011;38546;48.170;11.724;2022-09-27T18:17:48;2.03;;;1.93;;
3487;SDS011;38546;48.170;11.724;2022-09-27T18:20:38;2.30;;;2.10;;
3487;SDS011;38546;48.170;11.724;2022-09-27T18:23:30;3.67;;;2.27;;
3487;SDS011;38546;48.170;11.724;2022-09-27T18:26:20;3.63;;;2.83;;
3487;SDS011;38546;48.170;11.724;2022-09-27T18:29:15;2.00;;;1.90;;
3487;SDS011;38546;48.170;11.724;2022-09-27T18:32:08;8.50;;;3.43;;
3487;SDS011;38546;48.170;11.724;2022-09-27T18:34:57;2.37;;;2.17;;
3487;SDS011;38546;48.170;11.724;2022-09-27T18:37:46;2.50;;;1.90;;
3487;SDS011;38546;48.170;11.724;2022-09-27T18:40:35;1.97;;;1.87;;
3487;SDS011;38546;48.170;11.724;2022-09-27T18:43:25;2.60;;;1.63;;
3487;SDS011;38546;48.170;11.724;2022-09-27T18:46:17;1.87;;;1.77;;
3487;SDS011;38546;48.170;11.724;2022-09-27T18:49:07;2.30;;;2.20;;
3487;SDS011;38546;48.170;11.724;2022-09-27T18:51:59;3.20;;;2.40;;
3487;SDS011;38546;48.170;11.724;2022-09-27T18:54:50;2.37;;;2.27;;
3487;SDS011;38546;48.170;11.724;2022-09-27T18:57:38;2.20;;;2.00;;
3487;SDS011;38546;48.170;11.724;2022-09-27T19:00:28;2.13;;;2.03;;
3487;SDS011;38546;48.170;11.724;2022-09-27T19:03:17;1.50;;;1.40;;
3487;SDS011;38546;48.170;11.724;2022-09-27T19:06:08;1.67;;;1.50;;
3487;SDS011;38546;48.170;11.724;2022-09-27T19:09:02;1.30;;;1.30;;
3487;SDS011;38546;48.170;11.724;2022-09-27T19:11:52;1.40;;;1.40;;
3487;SDS011;38546;48.170;11.724;2022-09-27T19:14:42;1.77;;;1.60;;
3487;SDS011;38546;48.170;11.724;2022-09-27T19:17:31;1.40;;;1.30;;
3487;SDS011;38546;48.170;11.724;2022-09-27T19:20:20;1.53;;;1.43;;
3487;SDS011;38546;48.170;11.724;2022-09-27T19:23:09;1.13;;;1.13;;
3487;SDS011;38546;48.170;11.724;2022-09-27T19:25:59;1.73;;;1.33;;
3487;SDS011;38546;48.170;11.724;2022-09-27T19:28:49;1.33;;;1.33;;
3487;SDS011;38546;48.170;11.724;2022-09-27T19:31:39;1.93;;;1.80;;
3487;SDS011;38546;48.170;11.724;2022-09-27T19:34:29;1.33;;;1.33;;
3487;SDS011;38546;48.170;11.724;2022-09-27T19:37:19;1.57;;;1.20;;
3487;SDS011;38546;48.170;11.724;2022-09-27T19:40:08;2.87;;;1.90;;
3487;SDS011;38546;48.170;11.724;2022-09-27T19:42:58;1.30;;;1.30;;
3487;SDS011;38546;48.170;11.724;2022-09-27T19:45:47;1.60;;;1.50;;
3487;SDS011;38546;48.170;11.724;2022-09-27T19:48:37;0.90;;;0.87;;
3487;SDS011;38546;48.170;11.724;2022-09-27T19:51:26;4.00;;;1.20;;
3487;SDS011;38546;48.170;11.724;2022-09-27T19:54:16;2.50;;;1.40;;